Time,TemperatureF,DewpointF,PressureIn,WindDirection,WindDirectionDegrees,WindSpeedMPH,WindSpeedGustMPH,Humidity,HourlyPrecipIn,Conditions,Clouds,dailyrainin,SoftwareType,DateUTC
2013-02-23 00:00:00,29.2,20.6,24.15,North,0,0.0,-999.0,70,0.00,,,0.00,,2013-02-23 08:00:00,
2013-02-23 01:00:00,31.0,18.7,24.13,North,0,0.0,-999.0,60,0.00,,,0.00,,2013-02-23 09:00:00,
2013-02-23 02:00:00,30.6,23.0,24.13,North,0,0.0,-999.0,73,0.00,,,0.00,,2013-02-23 10:00:00,
2013-02-23 03:00:00,30.1,24.3,24.11,North,0,0.0,-999.0,79,0.00,,,0.00,,2013-02-23 11:00:00,
2013-02-23 04:00:00,29.7,23.9,24.08,North,0,0.0,-999.0,79,0.00,,,0.00,,2013-02-23 12:00:00,
2013-02-23 05:00:00,30.2,25.1,24.08,North,0,0.0,-999.0,81,0.00,,,0.00,,2013-02-23 13:00:00,
2013-02-23 06:00:00,29.9,25.4,24.06,North,0,0.0,-999.0,83,0.00,,,0.00,,2013-02-23 14:00:00,
2013-02-23 07:07:00,33.5,24.3,24.06,North,0,0.0,-999.0,69,0.00,,,0.00,,2013-02-23 15:07:00,
2013-02-23 08:00:00,32.6,26.8,24.07,North,0,0.0,-999.0,79,0.00,,,0.00,,2013-02-23 16:00:00,
2013-02-23 09:07:00,34.0,28.1,24.07,North,0,0.0,-999.0,79,0.00,,,0.00,,2013-02-23 17:07:00,
2013-02-23 10:00:00,36.4,29.5,24.08,North,0,0.0,-999.0,76,0.00,,,0.00,,2013-02-23 18:00:00,
2013-02-23 11:07:00,35.5,29.9,24.08,North,0,0.0,-999.0,80,0.00,,,0.00,,2013-02-23 19:07:00,
2013-02-23 12:00:00,35.5,29.9,24.03,North,0,0.0,-999.0,80,0.00,,,0.00,,2013-02-23 20:00:00,
2013-02-23 13:06:00,35.5,29.9,24.03,North,0,0.0,-999.0,80,0.00,,,0.00,,2013-02-23 21:06:00,
2013-02-23 14:00:00,34.9,29.6,24.01,North,0,0.0,-999.0,81,0.00,,,0.00,,2013-02-23 22:00:00,
2013-02-23 15:06:00,33.3,28.6,24.01,North,0,0.0,-999.0,83,0.00,,,0.00,,2013-02-23 23:06:00,
2013-02-23 16:00:00,32.0,28.4,23.99,North,0,0.0,-999.0,86,0.00,,,0.00,,2013-02-24 00:00:00,
2013-02-23 17:06:00,32.0,26.9,23.99,North,0,0.0,-999.0,81,0.00,,,0.00,,2013-02-24 01:06:00,
2013-02-23 18:00:00,31.5,25.5,24.03,North,0,0.0,-999.0,78,0.00,,,0.00,,2013-02-24 02:00:00,
2013-02-23 19:00:00,31.1,28.4,24.03,North,0,0.0,-999.0,89,0.00,,,0.00,,2013-02-24 03:00:00,
2013-02-23 20:00:00,30.4,28.5,24.04,North,0,0.0,-999.0,92,0.00,,,0.00,,2013-02-24 04:00:00,
2013-02-23 21:00:00,29.9,28.1,24.06,North,0,0.0,-999.0,93,0.00,,,0.00,,2013-02-24 05:00:00,
2013-02-23 22:00:00,29.9,28.1,24.06,North,0,0.0,-999.0,93,0.00,,,0.00,,2013-02-24 06:00:00,
2013-02-23 23:00:00,29.7,27.9,24.06,North,0,0.0,-999.0,93,0.00,,,0.00,,2013-02-24 07:00:00,